Weather at La Guardia Airport

Public forecast

Using degrees Fahrenheit for public forecast. Weather courtesy of forecast.io.

Current aviation weather report (METAR) for La Guardia Airport

Retrieved 2021/07/29 07:51 UTC (55 minutes ago):

KLGA 290751Z 21007KT 10SM SCT030 SCT040 23/18 A3000 RMK AO2 SLP159 T02280183

Aviation forecast (TAF) for La Guardia Airport

Retrieved 2021/07/29 06:27 UTC (2 hours ago):

TAF KLGA 290524Z 2906/3012 17008KT P6SM SCT015 SCT050 FM290900 15004KT P6SM SCT015 SCT050 TEMPO 2911/2915 BKN015 FM291500 15007KT 6SM -SHRA BR SCT015 BKN025 FM291800 15012KT P6SM VCSH SCT015 BKN025 PROB30 2919/2924 3SM TSRA SCT015 BKN050CB FM300000 21007KT P6SM SCT015 BKN025 FM300600 26010KT P6SM BKN025